createdAt,value
2019-02-06T00:00:40.704Z,-0.44
2019-02-06T00:01:40.698Z,-0.41
2019-02-06T00:02:40.718Z,-0.30
2019-02-06T00:03:40.674Z,-0.24
2019-02-06T00:04:40.664Z,-0.34
2019-02-06T00:05:40.652Z,-0.33
2019-02-06T00:06:40.643Z,-0.33
2019-02-06T00:07:40.655Z,-0.42
2019-02-06T00:08:40.625Z,-0.30
2019-02-06T00:09:40.612Z,-0.31
2019-02-06T00:10:40.600Z,-0.23
2019-02-06T00:11:40.599Z,-0.24
2019-02-06T00:12:40.609Z,-0.29
2019-02-06T00:13:40.593Z,-0.31
2019-02-06T00:14:40.582Z,-0.30
2019-02-06T00:15:40.547Z,-0.31
2019-02-06T00:16:40.539Z,-0.26
2019-02-06T00:17:40.571Z,-0.29
2019-02-06T00:18:40.543Z,-0.23
2019-02-06T00:19:40.514Z,-0.27
2019-02-06T00:20:40.498Z,-0.27
2019-02-06T00:21:40.485Z,-0.33
2019-02-06T00:22:40.505Z,-0.34
2019-02-06T00:23:40.474Z,-0.26
2019-02-06T00:24:40.451Z,-0.23
2019-02-06T00:25:40.452Z,-0.30
2019-02-06T00:26:40.439Z,-0.30
2019-02-06T00:27:40.457Z,-0.22
2019-02-06T00:28:40.417Z,-0.24
2019-02-06T00:29:40.409Z,-0.18
2019-02-06T00:30:40.483Z,-0.19
2019-02-06T00:31:40.383Z,-0.18
2019-02-06T00:32:40.400Z,-0.12
2019-02-06T00:33:40.359Z,-0.11
2019-02-06T00:34:40.359Z,-0.15
2019-02-06T00:35:40.349Z,-0.15
2019-02-06T00:36:40.334Z,-0.19
2019-02-06T00:37:40.344Z,-0.15
2019-02-06T00:38:40.310Z,-0.06
2019-02-06T00:39:40.295Z,-0.05
2019-02-06T00:40:40.290Z,-0.11
2019-02-06T00:41:40.280Z,-0.15
2019-02-06T00:42:40.303Z,-0.11
2019-02-06T00:43:40.256Z,-0.18
2019-02-06T00:44:40.242Z,-0.22
2019-02-06T00:45:40.235Z,-0.29
2019-02-06T00:46:40.228Z,-0.31
2019-02-06T00:47:40.242Z,-0.23
2019-02-06T00:48:40.208Z,-0.27
2019-02-06T00:49:40.192Z,-0.34
2019-02-06T00:50:40.186Z,-0.34
2019-02-06T00:51:40.172Z,-0.37
2019-02-06T00:52:40.188Z,-0.37
2019-02-06T00:53:40.152Z,-0.41
2019-02-06T00:54:40.140Z,-0.31
2019-02-06T00:55:40.132Z,-0.39
2019-02-06T00:56:40.120Z,-0.41
2019-02-06T00:57:40.158Z,-0.45
2019-02-06T00:58:40.108Z,-0.31
2019-02-06T00:59:40.088Z,-0.34
2019-02-06T01:00:40.077Z,-0.29
2019-02-06T01:01:40.069Z,-0.36
2019-02-06T01:02:40.166Z,-0.34
2019-02-06T01:03:40.072Z,-0.33
2019-02-06T01:04:40.045Z,-0.29
2019-02-06T01:05:40.025Z,-0.29
2019-02-06T01:06:40.016Z,-0.29
2019-02-06T01:07:40.005Z,-0.34
2019-02-06T01:08:40.019Z,-0.37
2019-02-06T01:09:39.989Z,-0.41
2019-02-06T01:10:39.980Z,-0.39
2019-02-06T01:11:39.968Z,-0.41
2019-02-06T01:12:39.953Z,-0.37
2019-02-06T01:13:39.966Z,-0.42
2019-02-06T01:14:39.932Z,-0.42
2019-02-06T01:15:39.916Z,-0.42
2019-02-06T01:16:39.914Z,-0.34
2019-02-06T01:17:39.902Z,-0.31
2019-02-06T01:18:39.911Z,-0.34
2019-02-06T01:19:39.884Z,-0.31
2019-02-06T01:20:39.868Z,-0.41
2019-02-06T01:21:39.858Z,-0.52
2019-02-06T01:22:39.848Z,-0.51
2019-02-06T01:23:39.866Z,-0.66
2019-02-06T01:24:39.834Z,-0.50
2019-02-06T01:25:39.823Z,-0.50
2019-02-06T01:26:39.804Z,-0.50
2019-02-06T01:27:39.796Z,-0.51
2019-02-06T01:28:39.813Z,-0.52
2019-02-06T01:29:39.778Z,-0.47
2019-02-06T01:30:39.770Z,-0.50
2019-02-06T01:31:39.759Z,-0.45
2019-02-06T01:32:39.744Z,-0.45
2019-02-06T01:33:39.775Z,-0.55
2019-02-06T01:34:39.720Z,-0.52
2019-02-06T01:35:49.590Z,-0.52
2019-02-06T01:36:40.690Z,-0.52
2019-02-06T01:37:39.693Z,-0.42
2019-02-06T01:38:39.707Z,-0.50
2019-02-06T01:39:39.670Z,-0.48
2019-02-06T01:40:39.661Z,-0.51
2019-02-06T01:41:39.650Z,-0.63
2019-02-06T01:42:39.637Z,-0.52
2019-02-06T01:43:39.656Z,-0.62
2019-02-06T01:44:39.619Z,-0.60
2019-02-06T01:45:39.615Z,-0.69
2019-02-06T01:46:39.595Z,-0.72
2019-02-06T01:47:39.583Z,-0.68
2019-02-06T01:48:39.599Z,-0.72
2019-02-06T01:49:39.563Z,-0.62
2019-02-06T01:50:39.561Z,-0.70
2019-02-06T01:51:39.544Z,-0.60
2019-02-06T01:52:39.546Z,-0.63
2019-02-06T01:53:39.553Z,-0.78
2019-02-06T01:54:39.512Z,-0.62
2019-02-06T01:55:39.502Z,-0.57
2019-02-06T01:56:39.494Z,-0.66
2019-02-06T01:57:39.479Z,-0.59
2019-02-06T01:58:39.501Z,-0.66
2019-02-06T01:59:39.466Z,-0.68
2019-02-06T02:00:39.456Z,-0.62
2019-02-06T02:01:39.439Z,-0.66
2019-02-06T02:02:39.430Z,-0.57
2019-02-06T02:03:39.445Z,-0.59
2019-02-06T02:04:39.410Z,-0.63
2019-02-06T02:05:39.408Z,-0.50
2019-02-06T02:06:39.387Z,-0.60
2019-02-06T02:07:39.375Z,-0.44
2019-02-06T02:08:39.393Z,-0.48
2019-02-06T02:09:39.357Z,-0.48
2019-02-06T02:10:39.350Z,-0.34
2019-02-06T02:11:39.346Z,-0.39
2019-02-06T02:12:39.325Z,-0.39
2019-02-06T02:13:39.344Z,-0.31
2019-02-06T02:14:39.307Z,-0.31
2019-02-06T02:15:39.296Z,-0.44
2019-02-06T02:16:39.283Z,-0.42
2019-02-06T02:17:39.276Z,-0.41
2019-02-06T02:18:39.288Z,-0.37
2019-02-06T02:19:39.254Z,-0.42
2019-02-06T02:20:39.247Z,-0.37
2019-02-06T02:21:39.248Z,-0.39
2019-02-06T02:22:39.220Z,-0.34
2019-02-06T02:23:39.241Z,-0.42
2019-02-06T02:24:39.202Z,-0.39
2019-02-06T02:25:39.194Z,-0.39
2019-02-06T02:26:39.190Z,-0.37
2019-02-06T02:27:39.172Z,-0.42
2019-02-06T02:28:39.211Z,-0.42
2019-02-06T02:29:39.146Z,-0.33
2019-02-06T02:30:39.139Z,-0.44
2019-02-06T02:31:39.127Z,-0.44
2019-02-06T02:32:39.116Z,-0.44
2019-02-06T02:33:39.112Z,-0.50
2019-02-06T02:34:39.128Z,-0.50
2019-02-06T02:35:39.106Z,-0.37
2019-02-06T02:36:39.082Z,-0.41
2019-02-06T02:37:39.066Z,-0.37
2019-02-06T02:38:39.058Z,-0.45
2019-02-06T02:39:46.349Z,-0.42
2019-02-06T02:40:39.037Z,-0.50
2019-02-06T02:41:39.026Z,-0.48
2019-02-06T02:42:39.013Z,-0.47
2019-02-06T02:43:39.005Z,-0.51
2019-02-06T02:44:39.020Z,-0.47
2019-02-06T02:45:38.982Z,-0.59
2019-02-06T02:46:38.979Z,-0.51
2019-02-06T02:47:38.959Z,-0.55
2019-02-06T02:48:38.948Z,-0.59
2019-02-06T02:49:38.967Z,-0.60
2019-02-06T02:50:38.938Z,-0.60
2019-02-06T02:51:38.920Z,-0.60
2019-02-06T02:52:38.911Z,-0.57
2019-02-06T02:53:38.895Z,-0.57
2019-02-06T02:54:38.915Z,-0.59
2019-02-06T02:55:38.877Z,-0.62
2019-02-06T02:56:38.867Z,-0.62
2019-02-06T02:57:38.860Z,-0.62
2019-02-06T02:58:38.843Z,-0.60
2019-02-06T02:59:38.862Z,-0.51
2019-02-06T03:00:38.823Z,-0.45
2019-02-06T03:01:38.812Z,-0.57
2019-02-06T03:02:38.805Z,-0.59
2019-02-06T03:03:38.807Z,-0.54
2019-02-06T03:04:38.811Z,-0.52
2019-02-06T03:05:38.870Z,-0.47
2019-02-06T03:06:38.759Z,-0.47
2019-02-06T03:07:38.757Z,-0.48
2019-02-06T03:08:38.740Z,-0.52
2019-02-06T03:09:38.763Z,-0.57
2019-02-06T03:10:38.722Z,-0.63
2019-02-06T03:11:38.710Z,-0.60
2019-02-06T03:12:38.700Z,-0.62
2019-02-06T03:13:38.691Z,-0.62
2019-02-06T03:14:38.703Z,-0.65
2019-02-06T03:15:38.668Z,-0.66
2019-02-06T03:16:38.702Z,-0.57
2019-02-06T03:17:38.658Z,-0.57
2019-02-06T03:18:38.639Z,-0.66
2019-02-06T03:19:38.653Z,-0.59
2019-02-06T03:20:38.619Z,-0.70
2019-02-06T03:21:38.606Z,-0.68
2019-02-06T03:22:38.600Z,-0.72
2019-02-06T03:23:38.585Z,-0.59
2019-02-06T03:24:39.069Z,-0.69
2019-02-06T03:25:38.568Z,-0.70
2019-02-06T03:26:38.566Z,-0.68
2019-02-06T03:27:38.541Z,-0.68
2019-02-06T03:28:38.534Z,-0.60
2019-02-06T03:29:38.548Z,-0.69
2019-02-06T03:30:38.535Z,-0.73
2019-02-06T03:31:38.504Z,-0.77
2019-02-06T03:32:38.498Z,-0.73
2019-02-06T03:33:38.594Z,-0.66
2019-02-06T03:34:38.466Z,-0.70
2019-02-06T03:35:38.483Z,-0.60
2019-02-06T03:36:40.690Z,-0.57
2019-02-06T03:37:38.448Z,-0.60
2019-02-06T03:38:38.461Z,-0.78
2019-02-06T03:39:38.418Z,-0.57
2019-02-06T03:40:38.452Z,-0.62
2019-02-06T03:41:38.397Z,-0.65
2019-02-06T03:42:38.387Z,-0.60
2019-02-06T03:43:38.387Z,-0.62
2019-02-06T03:44:38.383Z,-0.73
2019-02-06T03:45:38.382Z,-0.70
2019-02-06T03:46:38.348Z,-0.70
2019-02-06T03:47:38.332Z,-0.63
2019-02-06T03:48:38.324Z,-0.65
2019-02-06T03:49:38.310Z,-0.59
2019-02-06T03:50:38.338Z,-0.73
2019-02-06T03:51:38.291Z,-0.81
2019-02-06T03:52:38.287Z,-0.60
2019-02-06T03:53:38.270Z,-0.73
2019-02-06T03:54:38.259Z,-0.66
2019-02-06T03:55:38.279Z,-0.63
2019-02-06T03:56:38.239Z,-0.75
2019-02-06T03:57:38.234Z,-0.70
2019-02-06T03:58:38.222Z,-0.72
2019-02-06T03:59:38.207Z,-0.73
2019-02-06T04:00:38.395Z,-0.80
2019-02-06T04:01:38.188Z,-0.83
2019-02-06T04:02:38.177Z,-0.78
2019-02-06T04:03:38.167Z,-0.77
2019-02-06T04:04:38.174Z,-0.80
2019-02-06T04:05:38.168Z,-0.80
2019-02-06T04:06:38.141Z,-0.73
2019-02-06T04:07:38.129Z,-0.77
2019-02-06T04:08:38.133Z,-0.77
2019-02-06T04:09:38.107Z,-0.77
2019-02-06T04:10:38.130Z,-0.73
2019-02-06T04:11:38.083Z,-0.73
2019-02-06T04:12:38.079Z,-0.72
2019-02-06T04:13:38.064Z,-0.75
2019-02-06T04:14:38.052Z,-0.65
2019-02-06T04:15:38.063Z,-0.69
2019-02-06T04:16:38.033Z,-0.62
2019-02-06T04:17:38.096Z,-0.50
2019-02-06T04:18:38.007Z,-0.48
2019-02-06T04:19:37.999Z,-0.51
2019-02-06T04:20:38.017Z,-0.52
2019-02-06T04:21:37.982Z,-0.59
2019-02-06T04:22:37.985Z,-0.51
2019-02-06T04:23:37.959Z,-0.60
2019-02-06T04:24:37.946Z,-0.63
2019-02-06T04:25:37.996Z,-0.59
2019-02-06T04:26:37.932Z,-0.57
2019-02-06T04:27:37.925Z,-0.62
2019-02-06T04:28:37.992Z,-0.54
2019-02-06T04:29:37.896Z,-0.50
2019-02-06T04:30:37.921Z,-0.50
2019-02-06T04:31:37.878Z,-0.44
2019-02-06T04:32:37.868Z,-0.45
2019-02-06T04:33:37.857Z,-0.47
2019-02-06T04:34:37.845Z,-0.45
2019-02-06T04:35:37.871Z,-0.59
2019-02-06T04:36:37.824Z,-0.63
2019-02-06T04:37:37.816Z,-0.59
2019-02-06T04:38:37.804Z,-0.54
2019-02-06T04:39:37.795Z,-0.54
2019-02-06T04:40:37.802Z,-0.48
2019-02-06T04:41:37.770Z,-0.52
2019-02-06T04:42:37.769Z,-0.47
2019-02-06T04:43:37.771Z,-0.44
2019-02-06T04:44:37.744Z,-0.63
2019-02-06T04:45:37.754Z,-0.62
2019-02-06T04:46:37.724Z,-0.59
2019-02-06T04:47:37.707Z,-0.57
2019-02-06T04:48:37.698Z,-0.57
2019-02-06T04:49:37.695Z,-0.62
2019-02-06T04:50:37.704Z,-0.54
2019-02-06T04:51:37.668Z,-0.62
2019-02-06T04:52:37.654Z,-0.60
2019-02-06T04:53:37.653Z,-0.45
2019-02-06T04:54:37.646Z,-0.41
2019-02-06T04:55:37.648Z,-0.52
2019-02-06T04:56:37.611Z,-0.47
2019-02-06T04:57:37.602Z,-0.47
2019-02-06T04:58:37.594Z,-0.44
2019-02-06T04:59:37.584Z,-0.47
2019-02-06T05:00:37.636Z,-0.34
2019-02-06T05:01:37.559Z,-0.27
2019-02-06T05:02:37.636Z,-0.26
2019-02-06T05:03:37.540Z,-0.22
2019-02-06T05:04:37.556Z,-0.15
2019-02-06T05:05:37.580Z,-0.11
2019-02-06T05:06:37.551Z,-0.01
2019-02-06T05:07:37.568Z,0.03
2019-02-06T05:08:37.492Z,0.10
2019-02-06T05:09:37.474Z,0.18
2019-02-06T05:10:37.491Z,0.10
2019-02-06T05:11:37.456Z,0.15
2019-02-06T05:12:37.450Z,0.16
2019-02-06T05:13:37.435Z,0.12
2019-02-06T05:14:37.428Z,0.09
2019-02-06T05:15:37.447Z,0.12
2019-02-06T05:16:37.404Z,0.09
2019-02-06T05:17:37.397Z,0.12
2019-02-06T05:18:37.387Z,0.12
2019-02-06T05:19:37.377Z,0.09
2019-02-06T05:20:37.362Z,0.09
2019-02-06T05:21:37.375Z,0.16
2019-02-06T05:22:37.344Z,0.16
2019-02-06T05:23:37.334Z,0.16
2019-02-06T05:24:37.392Z,0.13
2019-02-06T05:25:37.316Z,0.25
2019-02-06T05:26:37.322Z,0.24
2019-02-06T05:27:37.292Z,0.31
2019-02-06T05:28:37.295Z,0.43
2019-02-06T05:29:37.272Z,0.27
2019-02-06T05:30:37.258Z,0.48
2019-02-06T05:31:37.275Z,0.48
2019-02-06T05:32:37.233Z,0.48
2019-02-06T05:33:37.226Z,0.48
2019-02-06T05:34:37.217Z,0.49
2019-02-06T05:35:37.209Z,0.46
2019-02-06T05:36:37.233Z,0.52
2019-02-06T05:37:37.187Z,0.53
2019-02-06T05:38:37.203Z,0.58
2019-02-06T05:39:37.168Z,0.58
2019-02-06T05:40:37.155Z,0.62
2019-02-06T05:41:37.171Z,0.60
2019-02-06T05:42:37.137Z,0.65
2019-02-06T05:43:37.126Z,0.65
2019-02-06T05:44:37.115Z,0.61
2019-02-06T05:45:37.101Z,0.67
2019-02-06T05:46:37.119Z,0.64
2019-02-06T05:47:37.086Z,0.67
2019-02-06T05:48:37.068Z,0.64
2019-02-06T05:49:37.065Z,0.62
2019-02-06T05:50:37.174Z,0.60
2019-02-06T05:51:37.068Z,0.48
2019-02-06T05:52:37.027Z,0.49
2019-02-06T05:53:37.028Z,0.61
2019-02-06T05:54:37.008Z,0.43
2019-02-06T05:55:36.995Z,0.61
2019-02-06T05:56:37.019Z,0.57
2019-02-06T05:57:36.976Z,0.64
2019-02-06T05:58:36.979Z,0.60
2019-02-06T05:59:36.973Z,0.61
2019-02-06T06:00:36.947Z,0.71
2019-02-06T06:01:36.962Z,0.72
2019-02-06T06:02:36.925Z,0.70
2019-02-06T06:03:37.049Z,0.58
2019-02-06T06:04:36.906Z,0.70
2019-02-06T06:05:36.892Z,0.75
2019-02-06T06:06:36.906Z,0.71
2019-02-06T06:07:45.303Z,0.64
2019-02-06T06:08:37.867Z,0.60
2019-02-06T06:09:36.853Z,0.61
2019-02-06T06:10:36.839Z,0.61
2019-02-06T06:11:36.856Z,0.79
2019-02-06T06:12:36.821Z,0.75
2019-02-06T06:13:36.812Z,0.75
2019-02-06T06:14:36.795Z,0.82
2019-02-06T06:15:36.793Z,0.85
2019-02-06T06:16:36.805Z,0.88
2019-02-06T06:17:36.773Z,0.78
2019-02-06T06:18:36.759Z,0.89
2019-02-06T06:19:36.747Z,0.85
2019-02-06T06:20:36.738Z,0.86
2019-02-06T06:21:36.750Z,0.86
2019-02-06T06:22:36.720Z,0.86
2019-02-06T06:23:36.705Z,0.78
2019-02-06T06:24:36.713Z,0.79
2019-02-06T06:25:36.682Z,0.82
2019-02-06T06:26:36.701Z,0.89
2019-02-06T06:27:36.664Z,0.82
2019-02-06T06:28:36.653Z,0.85
2019-02-06T06:29:36.641Z,0.82
2019-02-06T06:30:36.634Z,0.86
2019-02-06T06:31:36.650Z,0.80
2019-02-06T06:32:36.697Z,0.82
2019-02-06T06:33:36.605Z,0.88
2019-02-06T06:34:36.587Z,0.86
2019-02-06T06:35:36.576Z,0.82
2019-02-06T06:36:36.597Z,0.82
2019-02-06T06:37:36.555Z,0.94
2019-02-06T06:38:36.555Z,0.85
2019-02-06T06:39:36.541Z,0.89
2019-02-06T06:40:36.526Z,0.80
2019-02-06T06:41:36.539Z,0.86
2019-02-06T06:42:36.505Z,0.85
2019-02-06T06:43:36.490Z,0.85
2019-02-06T06:44:36.484Z,0.90
2019-02-06T06:45:36.474Z,1.00
2019-02-06T06:46:36.510Z,0.96
2019-02-06T06:47:36.455Z,0.86
2019-02-06T06:48:36.439Z,0.92
2019-02-06T06:49:36.432Z,0.98
2019-02-06T06:50:36.424Z,1.01
2019-02-06T06:51:36.416Z,0.98
2019-02-06T06:52:36.422Z,0.97
2019-02-06T06:53:36.400Z,1.03
2019-02-06T06:54:36.378Z,0.92
2019-02-06T06:55:36.456Z,0.98
2019-02-06T06:56:36.359Z,1.03
2019-02-06T06:57:36.371Z,0.92
2019-02-06T06:58:36.462Z,1.00
2019-02-06T06:59:36.355Z,1.03
2019-02-06T07:00:36.314Z,1.04
2019-02-06T07:01:36.314Z,1.04
2019-02-06T07:02:36.315Z,1.04
2019-02-06T07:03:36.282Z,1.18
2019-02-06T07:04:36.278Z,1.16
2019-02-06T07:05:36.262Z,1.19
2019-02-06T07:06:36.282Z,1.18
2019-02-06T07:07:36.268Z,1.22
2019-02-06T07:08:36.237Z,1.36
2019-02-06T07:09:36.230Z,1.34
2019-02-06T07:10:36.212Z,1.36
2019-02-06T07:11:36.198Z,1.33
2019-02-06T07:12:36.215Z,1.32
2019-02-06T07:13:37.181Z,1.19
2019-02-06T07:14:36.172Z,1.19
2019-02-06T07:15:36.160Z,1.15
2019-02-06T07:16:36.149Z,1.15
2019-02-06T07:17:36.163Z,1.21
2019-02-06T07:18:36.127Z,1.28
2019-02-06T07:19:36.116Z,1.33
2019-02-06T07:20:36.106Z,1.33
2019-02-06T07:21:36.097Z,1.26
2019-02-06T07:22:36.107Z,1.24
2019-02-06T07:23:36.073Z,1.29
2019-02-06T07:24:36.063Z,1.32
2019-02-06T07:25:36.057Z,1.29
2019-02-06T07:26:36.042Z,1.36
2019-02-06T07:27:36.065Z,1.34
2019-02-06T07:28:36.027Z,1.28
2019-02-06T07:29:36.013Z,1.43
2019-02-06T07:30:36.001Z,1.36
2019-02-06T07:31:35.992Z,1.37
2019-02-06T07:32:36.417Z,1.34
2019-02-06T07:33:35.975Z,1.34
2019-02-06T07:34:35.978Z,1.32
2019-02-06T07:35:35.955Z,1.34
2019-02-06T07:36:35.936Z,1.43
2019-02-06T07:37:35.971Z,1.33
2019-02-06T07:38:35.925Z,1.33
2019-02-06T07:39:35.908Z,1.39
2019-02-06T07:40:35.909Z,1.33
2019-02-06T07:41:35.897Z,1.32
2019-02-06T07:42:35.925Z,1.37
2019-02-06T07:43:35.863Z,1.34
2019-02-06T07:44:35.851Z,1.40
2019-02-06T07:45:35.850Z,1.44
2019-02-06T07:46:35.850Z,1.42
2019-02-06T07:47:35.857Z,1.50
2019-02-06T07:48:35.818Z,1.50
2019-02-06T07:49:35.799Z,1.44
2019-02-06T07:50:35.790Z,1.58
2019-02-06T07:51:35.784Z,1.55
2019-02-06T07:52:35.813Z,1.58
2019-02-06T07:53:35.754Z,1.61
2019-02-06T07:54:35.761Z,1.57
2019-02-06T07:55:35.739Z,1.65
2019-02-06T07:56:35.729Z,1.71
2019-02-06T07:57:35.751Z,1.72
2019-02-06T07:58:35.731Z,1.82
2019-02-06T07:59:35.708Z,1.83
2019-02-06T08:00:35.716Z,1.85
2019-02-06T08:01:35.678Z,1.87
2019-02-06T08:02:35.709Z,1.94
2019-02-06T08:03:35.663Z,1.93
2019-02-06T08:04:35.667Z,1.93
2019-02-06T08:05:35.648Z,1.97
2019-02-06T08:06:35.634Z,1.93
2019-02-06T08:07:35.646Z,1.93
2019-02-06T08:08:36.504Z,1.90
2019-02-06T08:09:35.599Z,1.91
2019-02-06T08:10:35.585Z,2.06
2019-02-06T08:11:35.568Z,2.04
2019-02-06T08:12:35.601Z,2.04
2019-02-06T08:13:35.558Z,1.94
2019-02-06T08:14:35.554Z,1.98
2019-02-06T08:15:35.537Z,2.04
2019-02-06T08:16:35.523Z,2.08
2019-02-06T08:17:35.509Z,2.01
2019-02-06T08:18:35.535Z,2.08
2019-02-06T08:19:35.490Z,2.12
2019-02-06T08:20:35.486Z,2.16
2019-02-06T08:21:35.461Z,2.23
2019-02-06T08:22:35.455Z,2.26
2019-02-06T08:23:35.470Z,2.20
2019-02-06T08:24:35.434Z,2.23
2019-02-06T08:25:35.425Z,2.17
2019-02-06T08:26:35.410Z,2.23
2019-02-06T08:27:35.411Z,2.33
2019-02-06T08:28:35.419Z,2.17
2019-02-06T08:29:35.383Z,2.23
2019-02-06T08:30:35.388Z,2.19
2019-02-06T08:31:35.359Z,2.28
2019-02-06T08:32:37.922Z,2.33
2019-02-06T08:33:35.364Z,2.37
2019-02-06T08:34:35.330Z,2.41
2019-02-06T08:35:35.321Z,2.35
2019-02-06T08:36:35.309Z,2.53
2019-02-06T08:37:35.300Z,2.55
2019-02-06T08:38:46.887Z,2.59
2019-02-06T08:40:27.773Z,2.85
2019-02-06T08:41:27.755Z,2.92
2019-02-06T08:42:27.751Z,2.97
2019-02-06T08:43:27.762Z,3.05
2019-02-06T08:44:27.727Z,3.00
2019-02-06T08:45:27.714Z,3.03
2019-02-06T08:46:27.703Z,3.03
2019-02-06T08:47:27.692Z,3.07
2019-02-06T08:48:27.706Z,3.05
2019-02-06T08:49:27.666Z,2.98
2019-02-06T08:50:27.660Z,3.16
2019-02-06T08:51:27.653Z,3.15
2019-02-06T08:52:27.639Z,3.20
2019-02-06T08:53:27.648Z,3.21
2019-02-06T08:54:27.615Z,3.25
2019-02-06T08:55:27.609Z,3.31
2019-02-06T08:56:27.599Z,3.34
2019-02-06T08:57:27.585Z,3.46
2019-02-06T08:58:27.653Z,3.44
2019-02-06T08:59:27.562Z,3.58
2019-02-06T09:00:27.552Z,3.57
2019-02-06T09:01:27.541Z,3.62
2019-02-06T09:02:27.532Z,3.64
2019-02-06T09:03:27.542Z,3.70
2019-02-06T09:04:27.508Z,3.79
2019-02-06T09:05:27.496Z,3.78
2019-02-06T09:06:27.489Z,3.78
2019-02-06T09:07:27.483Z,3.78
2019-02-06T09:08:27.492Z,3.78
2019-02-06T09:09:27.452Z,3.94
2019-02-06T09:10:27.446Z,4.00
2019-02-06T09:11:27.430Z,3.96
2019-02-06T09:12:27.424Z,4.04
2019-02-06T09:13:27.445Z,3.88
2019-02-06T09:14:27.401Z,3.80
2019-02-06T09:15:27.753Z,3.78
2019-02-06T09:16:27.382Z,3.86
2019-02-06T09:17:27.372Z,3.89
2019-02-06T09:18:27.384Z,3.89
2019-02-06T09:19:27.351Z,3.80
2019-02-06T09:20:27.358Z,3.83
2019-02-06T09:21:27.326Z,3.82
2019-02-06T09:22:27.318Z,3.78
2019-02-06T09:23:27.325Z,3.82
2019-02-06T09:24:27.301Z,3.83
2019-02-06T09:25:27.280Z,3.88
2019-02-06T09:26:27.283Z,3.76
2019-02-06T09:27:27.264Z,3.88
2019-02-06T09:28:27.276Z,3.96
2019-02-06T09:29:27.246Z,3.96
2019-02-06T09:30:27.232Z,4.06
2019-02-06T09:31:27.219Z,4.10
2019-02-06T09:32:27.206Z,4.21
2019-02-06T09:33:27.226Z,4.25
2019-02-06T09:34:27.186Z,4.28
2019-02-06T09:35:27.187Z,4.36
2019-02-06T09:36:27.163Z,4.37
2019-02-06T09:37:27.155Z,4.46
2019-02-06T09:38:27.194Z,4.42
2019-02-06T09:39:27.136Z,4.46
2019-02-06T09:40:27.123Z,4.65
2019-02-06T09:41:27.113Z,4.65
2019-02-06T09:42:27.097Z,4.61
2019-02-06T09:43:27.603Z,4.59
2019-02-06T09:44:27.104Z,4.62
2019-02-06T09:45:27.065Z,4.65
2019-02-06T09:46:27.085Z,4.65
2019-02-06T09:47:27.051Z,4.64
2019-02-06T09:48:27.033Z,4.62
2019-02-06T09:49:27.050Z,4.69
2019-02-06T09:50:27.018Z,4.70
2019-02-06T09:51:27.007Z,4.69
2019-02-06T09:52:28.849Z,4.67
2019-02-06T09:53:26.979Z,4.72
2019-02-06T09:54:26.997Z,4.67
2019-02-06T09:55:26.960Z,4.72
2019-02-06T09:56:26.949Z,4.65
2019-02-06T09:57:26.969Z,4.70
2019-02-06T09:58:26.930Z,4.75
2019-02-06T09:59:26.915Z,4.67
2019-02-06T10:00:26.902Z,4.67
2019-02-06T10:01:26.896Z,4.75
2019-02-06T10:02:26.883Z,4.79
2019-02-06T10:03:26.896Z,4.83
2019-02-06T10:04:26.858Z,4.86
2019-02-06T10:05:26.853Z,4.96
2019-02-06T10:06:26.842Z,5.10
2019-02-06T10:07:26.827Z,5.09
2019-02-06T10:08:26.845Z,5.13
2019-02-06T10:09:26.818Z,5.35
2019-02-06T10:10:26.794Z,5.27
2019-02-06T10:11:26.783Z,5.17
2019-02-06T10:12:26.776Z,5.41
2019-02-06T10:13:26.789Z,5.52
2019-02-06T10:14:26.755Z,5.34
2019-02-06T10:15:26.746Z,5.13
2019-02-06T10:16:26.733Z,5.20
2019-02-06T10:17:26.722Z,5.31
2019-02-06T10:18:26.753Z,5.46
2019-02-06T10:19:26.700Z,5.60
2019-02-06T10:20:26.702Z,5.64
2019-02-06T10:21:26.679Z,5.74
2019-02-06T10:22:26.674Z,5.82
2019-02-06T10:23:26.682Z,5.86
2019-02-06T10:24:26.649Z,5.92
2019-02-06T10:25:26.640Z,5.89
2019-02-06T10:26:26.621Z,5.86
2019-02-06T10:27:26.621Z,6.00
2019-02-06T10:28:26.630Z,6.06
2019-02-06T10:29:26.592Z,6.14
2019-02-06T10:30:26.577Z,6.14
2019-02-06T10:31:26.569Z,6.11
2019-02-06T10:32:26.556Z,6.22
2019-02-06T10:33:26.572Z,6.26
2019-02-06T10:34:26.539Z,6.25
2019-02-06T10:35:26.523Z,6.22
2019-02-06T10:36:26.517Z,6.19
2019-02-06T10:37:29.153Z,6.40
2019-02-06T10:38:26.522Z,6.33
2019-02-06T10:39:34.270Z,6.41
2019-02-06T10:40:27.473Z,6.36
2019-02-06T10:41:26.460Z,6.38
2019-02-06T10:42:26.450Z,6.47
2019-02-06T10:43:32.682Z,6.40
2019-02-06T10:44:27.431Z,6.48
2019-02-06T10:45:26.421Z,6.43
2019-02-06T10:46:26.409Z,6.44
2019-02-06T10:47:26.397Z,6.36
2019-02-06T10:48:26.451Z,6.43
2019-02-06T10:49:26.378Z,6.36
2019-02-06T10:50:26.367Z,6.35
2019-02-06T10:51:26.353Z,6.38
2019-02-06T10:52:26.342Z,6.35
2019-02-06T10:53:26.360Z,6.40
2019-02-06T10:54:26.320Z,6.41
2019-02-06T10:55:26.314Z,6.48
2019-02-06T10:56:26.299Z,6.43
2019-02-06T10:57:26.293Z,6.33
2019-02-06T10:58:26.302Z,6.40
2019-02-06T10:59:26.275Z,6.50
2019-02-06T11:00:26.387Z,6.50
2019-02-06T11:01:26.247Z,6.56
2019-02-06T11:02:26.235Z,6.51
2019-02-06T11:03:26.254Z,6.50
2019-02-06T11:04:26.221Z,6.50
2019-02-06T11:05:26.203Z,6.47
2019-02-06T11:06:26.202Z,6.54
2019-02-06T11:07:26.192Z,6.46
2019-02-06T11:08:26.201Z,6.50
2019-02-06T11:09:26.164Z,6.56
2019-02-06T11:10:26.164Z,6.48
2019-02-06T11:11:26.140Z,6.48
2019-02-06T11:12:26.130Z,6.44
2019-02-06T11:13:26.149Z,6.61
2019-02-06T11:14:26.116Z,6.59
2019-02-06T11:15:26.103Z,6.51
2019-02-06T11:16:26.100Z,6.50
2019-02-06T11:17:26.076Z,6.58
2019-02-06T11:18:26.103Z,6.68
2019-02-06T11:19:26.066Z,6.65
2019-02-06T11:20:26.053Z,6.73
2019-02-06T11:21:26.034Z,6.76
2019-02-06T11:22:26.031Z,6.76
2019-02-06T11:23:26.018Z,6.80
2019-02-06T11:24:26.906Z,6.84
2019-02-06T11:25:26.007Z,6.80
2019-02-06T11:26:25.991Z,6.83
2019-02-06T11:27:25.977Z,6.86
2019-02-06T11:28:25.961Z,6.91
2019-02-06T11:29:25.977Z,6.86
2019-02-06T11:30:25.941Z,6.84
2019-02-06T11:31:25.932Z,6.95
2019-02-06T11:32:25.925Z,6.97
2019-02-06T11:33:25.915Z,7.13
2019-02-06T11:34:25.925Z,7.01
2019-02-06T11:35:25.887Z,7.12
2019-02-06T11:36:25.875Z,7.16
2019-02-06T11:37:25.863Z,7.12
2019-02-06T11:38:27.913Z,7.17
2019-02-06T11:39:25.869Z,7.16
2019-02-06T11:40:25.830Z,7.19
2019-02-06T11:41:25.815Z,7.27
2019-02-06T11:42:25.810Z,7.29
2019-02-06T11:43:25.796Z,7.35
2019-02-06T11:44:25.818Z,7.38
2019-02-06T11:45:25.773Z,7.45
2019-02-06T11:46:25.762Z,7.55
2019-02-06T11:47:25.749Z,7.49
2019-02-06T11:48:25.740Z,7.56
2019-02-06T11:49:25.759Z,7.63
2019-02-06T11:50:25.718Z,7.63
2019-02-06T11:51:25.713Z,7.66
2019-02-06T11:52:25.696Z,7.72
2019-02-06T11:53:26.498Z,7.77
2019-02-06T11:54:25.705Z,7.74
2019-02-06T11:55:25.659Z,7.72
2019-02-06T11:56:25.647Z,7.81
2019-02-06T11:57:25.647Z,7.74
2019-02-06T11:58:25.631Z,7.77
2019-02-06T11:59:25.639Z,7.84
2019-02-06T12:00:25.604Z,7.85
2019-02-06T12:01:25.598Z,7.89
2019-02-06T12:02:36.689Z,8.11
2019-02-06T12:03:26.573Z,8.07
2019-02-06T12:04:25.587Z,8.07
2019-02-06T12:05:25.551Z,8.17
2019-02-06T12:06:25.545Z,8.18
2019-02-06T12:07:25.526Z,8.33
2019-02-06T12:08:25.524Z,8.37
2019-02-06T12:09:25.535Z,8.35
2019-02-06T12:10:25.503Z,8.12
2019-02-06T12:11:25.488Z,8.15
2019-02-06T12:12:25.474Z,8.20
2019-02-06T12:13:25.463Z,8.15
2019-02-06T12:14:25.475Z,8.11
2019-02-06T12:15:25.440Z,8.08
2019-02-06T12:16:25.515Z,8.10
2019-02-06T12:17:25.424Z,8.12
2019-02-06T12:18:25.407Z,8.11
2019-02-06T12:19:25.431Z,8.11
2019-02-06T12:20:25.396Z,8.15
2019-02-06T12:21:25.379Z,8.15
2019-02-06T12:22:25.362Z,8.20
2019-02-06T12:23:32.433Z,8.28
2019-02-06T12:24:26.372Z,8.30
2019-02-06T12:25:25.332Z,8.28
2019-02-06T12:26:25.320Z,8.40
2019-02-06T12:27:25.315Z,8.29
2019-02-06T12:28:25.298Z,8.29
2019-02-06T12:29:25.320Z,8.26
2019-02-06T12:30:25.285Z,8.18
2019-02-06T12:31:25.274Z,8.33
2019-02-06T12:32:25.257Z,8.40
2019-02-06T12:33:25.262Z,8.33
2019-02-06T12:34:25.263Z,8.26
2019-02-06T12:35:25.225Z,8.32
2019-02-06T12:36:25.219Z,8.25
2019-02-06T12:37:25.212Z,8.12
2019-02-06T12:38:25.209Z,8.25
2019-02-06T12:39:25.228Z,8.33
2019-02-06T12:40:25.182Z,8.21
2019-02-06T12:41:25.170Z,8.32
2019-02-06T12:42:25.151Z,8.44
2019-02-06T12:43:25.146Z,8.37
2019-02-06T12:44:25.152Z,8.50
2019-02-06T12:45:25.116Z,8.73
2019-02-06T12:46:25.109Z,8.73
2019-02-06T12:47:26.885Z,8.90
2019-02-06T12:48:25.085Z,8.91
2019-02-06T12:49:25.122Z,8.86
2019-02-06T12:50:25.080Z,9.01
2019-02-06T12:51:25.057Z,9.02
2019-02-06T12:52:25.048Z,9.02
2019-02-06T12:53:25.031Z,9.09
2019-02-06T12:54:25.046Z,9.06
2019-02-06T12:55:25.034Z,8.91
2019-02-06T12:56:25.007Z,9.05
2019-02-06T12:57:35.992Z,9.12
2019-02-06T12:58:26.317Z,9.15
2019-02-06T12:59:24.994Z,9.16
2019-02-06T13:00:24.979Z,9.12
2019-02-06T13:01:24.951Z,9.30
2019-02-06T13:02:24.941Z,9.43
2019-02-06T13:03:24.923Z,9.53
2019-02-06T13:04:24.909Z,9.64
2019-02-06T13:05:24.926Z,9.67
2019-02-06T13:06:24.899Z,9.64
2019-02-06T13:07:24.883Z,9.64
2019-02-06T13:08:24.875Z,9.66
2019-02-06T13:09:24.859Z,9.78